Time;durP1;ratioP1;P1;durP2;ratioP2;P2;SDS_P1;SDS_P2;PMS_P1;PMS_P2;Temp;Humidity;BMP_temperature;BMP_pressure;BME280_temperature;BME280_humidity;BME280_pressure;Samples;Min_cycle;Max_cycle;Signal;HPM_P1;HPM_P2
2021/01/11 00:00:16;;;;;;;50.63;31.87;;;-5.30;1.40;;;-5.04;100.00;95756.37;650251;216;31984;-72
2021/01/11 00:05:22;;;;;;;46.25;30.52;;;-5.30;1.40;;;-5.09;100.00;95755.26;644749;212;31688;-72
2021/01/11 00:07:50;;;;;;;38.60;24.20;;;-5.30;1.40;;;-4.83;100.00;95748.82;641571;220;23484;-72
2021/01/11 00:10:19;;;;;;;49.30;30.85;;;-5.20;1.40;;;-4.54;100.00;95748.45;635612;220;32258;-72
2021/01/11 00:12:47;;;;;;;52.00;33.50;;;-5.10;1.40;;;-4.40;100.00;95745.38;635975;221;31749;-72
2021/01/11 00:15:16;;;;;;;45.30;27.33;;;-5.10;1.40;;;-4.29;100.00;95751.22;639109;221;23478;-72
2021/01/11 00:17:44;;;;;;;47.42;30.40;;;-5.10;1.40;;;-4.21;100.00;95754.89;633915;221;32034;-73
2021/01/11 00:20:13;;;;;;;46.73;26.80;;;-5.00;1.40;;;-4.47;100.00;95752.12;642927;220;24958;-74
2021/01/11 00:22:44;;;;;;;51.75;32.83;;;-5.10;1.40;;;-4.41;100.00;95754.36;636773;221;31744;-73
2021/01/11 00:25:12;;;;;;;46.88;31.55;;;-5.10;1.40;;;-4.83;100.00;95756.81;632576;221;31776;-73
2021/01/11 00:27:43;;;;;;;48.25;31.12;;;-5.30;1.40;;;-4.89;100.00;95758.91;633508;221;31855;-73
2021/01/11 00:30:12;;;;;;;34.60;22.23;;;-5.30;1.40;;;-5.18;100.00;95759.09;654018;215;24483;-72
2021/01/11 00:32:40;;;;;;;39.08;25.55;;;-5.40;1.40;;;-5.30;100.00;95760.27;645338;219;31676;-73
2021/01/11 00:35:09;;;;;;;38.88;27.65;;;-5.50;1.40;;;-5.34;100.00;95756.78;664930;211;31372;-73
2021/01/11 00:37:37;;;;;;;38.10;22.23;;;-5.60;1.40;;;-5.39;100.00;95755.09;666506;211;23913;-74
2021/01/11 00:40:07;;;;;;;38.95;25.83;;;-5.60;1.40;;;-5.37;100.00;95759.34;655445;211;31712;-73
2021/01/11 00:42:35;;;;;;;41.08;28.23;;;-5.60;1.40;;;-5.12;100.00;95755.48;652504;216;31559;-74
2021/01/11 00:45:06;;;;;;;41.10;22.33;;;-5.50;1.40;;;-5.29;100.00;95755.91;658070;215;23481;-73
2021/01/11 00:47:38;;;;;;;39.83;26.90;;;-5.60;1.40;;;-5.32;100.00;95751.02;651832;215;31706;-73
2021/01/11 00:50:08;;;;;;;37.07;24.20;;;-5.60;1.40;;;-5.50;100.00;95752.47;654533;216;23479;-73
2021/01/11 00:52:37;;;;;;;41.70;25.50;;;-5.70;1.40;;;-5.64;100.00;95754.94;651339;216;31615;-74
2021/01/11 00:55:07;;;;;;;41.17;25.25;;;-5.80;1.40;;;-5.72;100.00;95756.44;648528;215;31748;-75
2021/01/11 00:57:35;;;;;;;31.03;20.53;;;-5.80;1.40;;;-5.81;100.00;95761.38;653217;216;23489;-74
2021/01/11 01:00:05;;;;;;;36.65;23.77;;;-5.80;1.40;;;-5.73;100.00;95753.99;647152;215;31662;-71
2021/01/11 01:02:34;;;;;;;39.35;26.17;;;-5.80;1.40;;;-5.58;100.00;95753.50;638059;221;31815;-73
2021/01/11 01:05:02;;;;;;;36.97;21.77;;;-5.80;1.40;;;-5.19;100.00;95751.70;656776;216;23456;-72
2021/01/11 01:07:31;;;;;;;42.92;26.12;;;-5.70;1.40;;;-5.00;100.00;95758.91;648402;216;31611;-72
2021/01/11 01:09:59;;;;;;;45.60;28.95;;;-5.60;1.40;;;-4.96;100.00;95756.81;647227;215;31810;-72
2021/01/11 01:12:27;;;;;;;38.90;22.80;;;-5.60;1.40;;;-5.10;100.00;95764.96;642743;221;23494;-72
2021/01/11 01:14:56;;;;;;;43.40;28.08;;;-5.60;1.40;;;-5.00;100.00;95763.63;650815;215;31627;-72
2021/01/11 01:17:24;;;;;;;45.30;29.37;;;-5.60;1.40;;;-5.29;100.00;95770.10;652114;215;31597;-72
2021/01/11 01:19:53;;;;;;;33.30;21.67;;;-5.70;1.40;;;-5.54;100.00;95768.34;644169;220;24524;-73
2021/01/11 01:22:21;;;;;;;38.53;24.90;;;-5.70;1.40;;;-5.66;100.00;95772.23;653931;215;31599;-72
2021/01/11 01:24:50;;;;;;;39.63;24.52;;;-5.80;1.40;;;-5.52;100.00;95769.58;639027;219;31993;-72
2021/01/11 01:27:18;;;;;;;41.00;26.60;;;-5.80;1.40;;;-5.44;100.00;95770.80;651109;215;31629;-72
2021/01/11 01:29:46;;;;;;;42.92;27.33;;;-5.70;1.40;;;-5.38;100.00;95771.22;638988;221;31774;-73
2021/01/11 01:32:15;;;;;;;42.40;27.73;;;-5.70;1.40;;;-5.46;100.00;95770.64;654001;215;31810;-73
2021/01/11 01:34:43;;;;;;;37.78;24.73;;;-5.70;1.40;;;-5.74;100.00;95776.20;636672;220;32604;-72
2021/01/11 01:37:12;;;;;;;39.13;25.52;;;-5.80;1.40;;;-5.65;100.00;95772.97;651922;215;31880;-73
2021/01/11 01:39:40;;;;;;;36.67;23.00;;;-5.80;1.40;;;-5.37;100.00;95770.53;644378;221;23495;-72
2021/01/11 01:42:09;;;;;;;34.08;23.95;;;-5.70;1.40;;;-5.30;100.00;95764.94;648732;215;32515;-73
2021/01/11 01:44:37;;;;;;;44.42;27.20;;;-5.70;1.40;;;-5.33;100.00;95758.69;652132;215;31631;-73
2021/01/11 01:47:06;;;;;;;34.40;23.40;;;-5.70;1.40;;;-4.94;100.00;95754.63;655467;215;23516;-73
2021/01/11 01:49:34;;;;;;;44.90;27.92;;;-5.60;1.40;;;-4.86;100.00;95755.23;648452;215;31648;-73
2021/01/11 01:52:03;;;;;;;46.60;27.70;;;-5.60;1.40;;;-5.04;100.00;95754.75;654070;215;31818;-73
2021/01/11 01:54:31;;;;;;;40.70;23.70;;;-5.60;1.40;;;-5.00;100.00;95757.55;642608;221;23483;-73
2021/01/11 01:57:00;;;;;;;39.45;26.45;;;-5.60;1.40;;;-5.15;100.00;95762.26;649766;215;31715;-72
2021/01/11 01:59:28;;;;;;;50.28;29.70;;;-5.70;1.40;;;-4.79;100.00;95756.72;651479;215;31617;-73
2021/01/11 02:01:57;;;;;;;39.93;24.30;;;-5.60;1.40;;;-4.83;100.00;95754.98;655739;216;23449;-73
2021/01/11 02:04:25;;;;;;;44.50;29.25;;;-5.60;1.40;;;-4.98;100.00;95754.38;651883;215;32363;-73
2021/01/11 02:06:56;;;;;;;39.85;26.80;;;-5.60;1.40;;;-5.28;100.00;95752.45;639160;221;42507;-73
2021/01/11 02:09:43;;;;;;;31.90;19.20;;;-5.60;1.40;;;-5.60;100.00;95750.67;654899;215;25116;-72
2021/01/11 02:12:21;;;;;;;35.65;23.73;;;-5.80;1.40;;;-5.65;100.00;95749.68;648949;212;31601;-72
2021/01/11 02:15:06;;;;;;;35.07;21.83;;;-5.80;1.40;;;-5.71;100.00;95747.98;643157;221;23522;-72
2021/01/11 02:17:47;;;;;;;43.50;24.87;;;-5.80;1.40;;;-5.69;100.00;95746.38;634842;221;31903;-72
2021/01/11 02:21:06;;;;;;;38.63;25.90;;;-5.80;1.40;;;-5.51;100.00;95743.84;635594;221;31824;-72
2021/01/11 02:24:03;;;;;;;40.95;23.80;;;-5.80;1.40;;;-5.74;100.00;95736.28;647396;216;31661;-73
2021/01/11 02:26:39;;;;;;;36.63;22.65;;;-5.90;1.40;;;-5.62;100.00;95741.99;635571;220;31763;-73
2021/01/11 02:29:30;;;;;;;31.60;20.00;;;-5.90;1.40;;;-5.73;100.00;95740.28;639598;220;23708;-72
2021/01/11 02:31:58;;;;;;;34.42;22.60;;;-5.90;1.40;;;-5.60;100.00;95738.89;651018;216;31668;-73
2021/01/11 02:34:27;;;;;;;33.97;23.25;;;-5.90;1.40;;;-5.71;100.00;95735.79;649297;216;31603;-73
2021/01/11 02:36:55;;;;;;;33.20;20.27;;;-5.90;1.40;;;-5.74;100.00;95734.89;669234;211;24480;-73
2021/01/11 02:39:24;;;;;;;34.28;23.25;;;-5.90;1.40;;;-5.66;100.00;95733.71;664808;211;31524;-73
2021/01/11 02:41:52;;;;;;;34.33;23.80;;;-5.90;1.40;;;-5.80;100.00;95731.08;663737;211;31784;-72
2021/01/11 02:44:20;;;;;;;37.30;19.77;;;-5.90;1.40;;;-5.75;100.00;95721.55;666602;211;23457;-72
2021/01/11 02:46:49;;;;;;;34.35;21.75;;;-6.00;1.40;;;-5.65;100.00;95728.70;663564;211;31465;-73
2021/01/11 02:49:21;;;;;;;36.25;23.30;;;-6.00;1.40;;;-5.85;100.00;95733.63;664236;211;31477;-72
2021/01/11 02:52:02;;;;;;;28.20;18.53;;;-6.10;1.40;;;-5.97;100.00;95728.73;666289;211;28747;-72
2021/01/11 02:54:34;;;;;;;34.25;22.35;;;-6.10;1.40;;;-5.94;100.00;95726.18;664417;211;31482;-72
2021/01/11 02:57:08;;;;;;;33.20;22.20;;;-6.10;1.40;;;-6.00;100.00;95723.63;663594;211;31979;-72
2021/01/11 02:59:40;;;;;;;24.97;18.17;;;-6.10;1.40;;;-5.92;100.00;95731.09;666544;211;23434;-72
2021/01/11 03:04:44;;;;;;;37.75;25.77;;;-6.00;1.40;;;-5.55;100.00;95728.22;642318;215;31676;-73
2021/01/11 03:07:13;;;;;;;29.40;17.87;;;-6.00;1.40;;;-5.36;100.00;95735.45;640899;220;23518;-72
2021/01/11 03:12:16;;;;;;;36.13;22.87;;;-6.00;1.40;;;-5.60;100.00;95735.05;650572;216;31603;-72
2021/01/11 03:14:44;;;;;;;38.08;23.45;;;-6.00;1.40;;;-5.35;100.00;95735.41;638282;220;31814;-73
2021/01/11 03:17:12;;;;;;;33.33;18.57;;;-5.90;1.40;;;-5.10;100.00;95732.59;639312;220;24530;-72
2021/01/11 03:19:41;;;;;;;37.65;24.63;;;-5.80;1.40;;;-5.53;100.00;95735.45;636555;220;32329;-73
2021/01/11 03:22:09;;;;;;;36.28;23.50;;;-6.00;1.40;;;-5.16;100.00;95732.55;634160;220;31881;-73
2021/01/11 03:24:40;;;;;;;32.43;20.03;;;-5.90;1.40;;;-4.97;100.00;95737.47;640983;221;23510;-73
2021/01/11 03:27:06;;;;;;;40.90;23.70;;;-5.70;1.40;;;-5.09;100.00;95741.34;637623;221;31788;-73
2021/01/11 03:29:34;;;;;;;38.92;25.50;;;-5.80;1.40;;;-5.02;100.00;95737.88;633839;220;31867;-73
2021/01/11 03:32:03;;;;;;;34.50;19.03;;;-5.80;1.40;;;-5.34;100.00;95742.52;638896;221;23504;-73
2021/01/11 03:37:06;;;;;;;35.10;22.50;;;-5.90;1.40;;;-5.37;100.00;95739.95;649032;212;31639;-73
2021/01/11 03:39:34;;;;;;;26.33;19.63;;;-6.00;1.40;;;-5.50;100.00;95741.00;635173;220;23541;-73
2021/01/11 03:42:02;;;;;;;34.60;21.45;;;-6.10;1.40;;;-5.33;100.00;95735.23;639361;219;31832;-73
2021/01/11 03:44:31;;;;;;;35.25;23.65;;;-6.10;1.40;;;-5.46;100.00;95734.77;652042;215;31671;-74
2021/01/11 03:47:00;;;;;;;37.40;18.67;;;-6.10;1.40;;;-5.47;100.00;95734.26;655356;215;23435;-73
2021/01/11 03:49:28;;;;;;;39.25;24.45;;;-6.10;1.40;;;-5.42;100.00;95730.21;636613;221;32076;-73
2021/01/11 03:52:01;;;;;;;37.72;23.30;;;-6.10;1.40;;;-5.36;100.00;95733.92;651020;215;31573;-72
2021/01/11 03:57:06;;;;;;;38.38;23.60;;;-6.20;1.40;;;-5.67;100.00;95731.23;648668;216;31597;-74
2021/01/11 03:59:34;;;;;;;39.22;26.48;;;-6.20;1.40;;;-5.57;100.00;95724.45;635105;220;32027;-73
2021/01/11 04:02:03;;;;;;;33.50;20.17;;;-6.10;1.40;;;-5.37;100.00;95725.52;641604;220;25971;-73
2021/01/11 04:04:31;;;;;;;41.20;25.10;;;-6.00;1.40;;;-5.46;100.00;95719.71;635819;221;31747;-73
2021/01/11 04:07:00;;;;;;;43.13;25.10;;;-6.00;1.40;;;-5.66;100.00;95719.48;636140;221;31768;-73
2021/01/11 04:09:28;;;;;;;39.92;25.80;;;-6.10;1.40;;;-5.85;100.00;95716.33;633634;220;31864;-73
2021/01/11 04:11:56;;;;;;;39.20;20.60;;;-6.20;1.40;;;-5.87;100.00;95710.44;640479;221;23488;-73
2021/01/11 04:14:25;;;;;;;41.72;24.60;;;-6.20;1.40;;;-5.90;100.00;95714.92;637243;221;31826;-73
2021/01/11 04:16:53;;;;;;;38.20;23.73;;;-6.20;1.40;;;-5.94;100.00;95709.87;636719;220;42393;-73
2021/01/11 04:19:22;;;;;;;33.37;20.90;;;-6.20;1.40;;;-5.97;100.00;95708.13;642777;221;23501;-73
2021/01/11 04:21:50;;;;;;;44.17;27.70;;;-6.20;1.40;;;-5.99;100.00;95712.11;636419;220;31949;-74
2021/01/11 04:24:18;;;;;;;44.28;25.37;;;-6.20;1.40;;;-5.91;100.00;95706.75;635876;221;31828;-74
2021/01/11 04:26:47;;;;;;;33.23;19.57;;;-6.20;1.40;;;-6.01;100.00;95707.25;643477;221;23471;-71
2021/01/11 04:29:15;;;;;;;46.70;25.58;;;-6.20;1.40;;;-5.84;100.00;95704.39;633884;220;32019;-72
2021/01/11 04:31:44;;;;;;;41.37;25.47;;;-6.20;1.40;;;-5.78;100.00;95700.01;634852;220;31737;-71
2021/01/11 04:34:12;;;;;;;37.80;19.43;;;-6.10;1.40;;;-5.84;100.00;95709.05;647574;220;24525;-72
2021/01/11 04:36:41;;;;;;;40.45;23.62;;;-6.20;1.40;;;-6.02;100.00;95708.77;666122;211;31562;-71
2021/01/11 04:39:09;;;;;;;40.33;25.42;;;-6.30;1.40;;;-5.91;100.00;95711.53;636741;220;35456;-71
2021/01/11 04:41:38;;;;;;;42.45;26.27;;;-6.20;1.40;;;-5.95;100.00;95713.45;648583;218;31740;-71
2021/01/11 04:44:08;;;;;;;35.97;21.53;;;-6.20;1.40;;;-5.92;100.00;95715.52;646644;217;23520;-72
2021/01/11 04:46:36;;;;;;;41.50;26.35;;;-6.20;1.40;;;-5.84;100.00;95716.75;638469;220;31771;-72
2021/01/11 04:49:05;;;;;;;29.30;18.50;;;-6.10;1.40;;;-5.99;100.00;95722.37;657040;216;25596;-72
2021/01/11 04:51:33;;;;;;;32.55;21.80;;;-6.10;1.40;;;-6.01;100.00;95724.83;650307;216;31593;-72
2021/01/11 04:54:01;;;;;;;39.28;24.52;;;-6.20;1.40;;;-6.02;100.00;95720.73;648405;216;31641;-72
2021/01/11 04:56:29;;;;;;;27.50;16.20;;;-6.20;1.40;;;-5.79;100.00;95722.41;654704;216;23456;-72
2021/01/11 04:58:58;;;;;;;32.90;20.50;;;-6.10;1.40;;;-5.97;100.00;95720.47;637547;221;31806;-71
2021/01/11 05:01:27;;;;;;;31.83;21.45;;;-6.10;1.40;;;-6.27;100.00;95725.67;649469;215;31601;-72
2021/01/11 05:03:57;;;;;;;24.87;16.67;;;-6.30;1.40;;;-6.24;100.00;95714.83;632317;225;25227;-72
2021/01/11 05:06:26;;;;;;;32.65;20.17;;;-6.20;1.40;;;-6.23;100.00;95717.91;637239;219;32159;-72
2021/01/11 05:09:00;;;;;;;28.52;20.20;;;-6.20;1.40;;;-6.28;100.00;95715.59;625936;224;32080;-72
2021/01/11 05:11:29;;;;;;;32.10;18.60;;;-6.20;1.40;;;-6.24;100.00;95717.90;629699;225;23626;-72
2021/01/11 05:16:37;;;;;;;38.28;23.10;;;-6.20;1.40;;;-5.77;100.00;95717.91;646166;216;31654;-72
2021/01/11 05:21:43;;;;;;;38.17;22.40;;;-6.20;1.40;;;-5.98;100.00;95724.39;646189;216;31613;-72
2021/01/11 05:24:35;;;;;;;31.53;17.33;;;-6.20;1.40;;;-6.06;100.00;95721.45;642515;220;23466;-72
2021/01/11 05:27:07;;;;;;;37.42;22.55;;;-6.20;1.40;;;-6.12;100.00;95726.84;635974;221;31859;-72
2021/01/11 05:29:35;;;;;;;35.42;21.02;;;-6.20;1.40;;;-6.14;100.00;95723.92;636609;221;31765;-74
2021/01/11 05:32:04;;;;;;;28.83;18.07;;;-6.30;1.40;;;-6.34;100.00;95723.73;641962;220;23557;-72
2021/01/11 05:36:09;;;;;;;34.47;20.40;;;-6.40;1.40;;;-6.25;100.00;95729.48;646663;216;42248;-72
2021/01/11 05:38:37;;;;;;;34.40;18.30;;;-6.40;1.40;;;-6.01;100.00;95739.39;641022;220;23560;-73
2021/01/11 05:41:13;;;;;;;36.85;22.20;;;-6.30;1.40;;;-5.54;100.00;95740.70;634271;220;31929;-73
2021/01/11 05:43:42;;;;;;;41.78;23.92;;;-6.10;1.40;;;-5.55;100.00;95753.19;633938;221;31835;-73
2021/01/11 05:46:26;;;;;;;31.47;17.97;;;-6.10;1.40;;;-5.43;100.00;95746.37;641795;221;23559;-73
2021/01/11 05:48:56;;;;;;;34.95;20.65;;;-6.10;1.40;;;-5.84;100.00;95756.18;636255;221;31842;-72
2021/01/11 05:51:26;;;;;;;35.15;23.27;;;-6.20;1.40;;;-5.97;100.00;95766.20;648645;215;31633;-73
2021/01/11 05:53:54;;;;;;;26.30;16.53;;;-6.30;1.40;;;-5.70;100.00;95762.05;641207;220;23485;-74
2021/01/11 05:56:22;;;;;;;36.45;21.98;;;-6.30;1.40;;;-5.79;100.00;95767.53;663340;211;31857;-73
2021/01/11 05:59:05;;;;;;;35.80;23.70;;;-6.30;1.40;;;-5.85;100.00;95769.56;664890;211;31424;-74
2021/01/11 06:01:33;;;;;;;30.20;17.97;;;-6.30;1.40;;;-5.82;100.00;95777.98;669647;211;23468;-72
2021/01/11 06:04:01;;;;;;;37.65;21.67;;;-6.40;1.40;;;-5.76;100.00;95773.34;664364;211;31526;-73
2021/01/11 06:06:30;;;;;;;35.10;23.30;;;-6.30;1.40;;;-5.53;100.00;95775.69;664039;211;31703;-73
2021/01/11 06:08:58;;;;;;;33.10;21.20;;;-6.20;1.40;;;-5.31;100.00;95777.11;669800;211;23727;-73
2021/01/11 06:11:27;;;;;;;39.90;24.15;;;-6.10;1.40;;;-5.43;100.00;95776.58;663214;211;31517;-73
2021/01/11 06:13:58;;;;;;;38.92;24.87;;;-6.20;1.40;;;-5.23;100.00;95772.84;663110;211;32247;-72
2021/01/11 06:16:28;;;;;;;43.50;26.60;;;-6.10;1.40;;;-5.30;100.00;95772.16;661414;211;31466;-74
2021/01/11 06:18:55;;;;;;;33.87;20.77;;;-6.10;1.40;;;-5.68;100.00;95778.41;670425;211;23443;-73
2021/01/11 06:21:24;;;;;;;42.75;24.52;;;-6.20;1.40;;;-5.61;100.00;95771.08;648426;216;42303;-72
2021/01/11 06:24:16;;;;;;;34.80;19.60;;;-6.10;1.40;;;-5.52;100.00;95769.33;670753;211;23435;-73
2021/01/11 06:26:57;;;;;;;34.97;21.85;;;-6.20;1.40;;;-5.91;100.00;95768.81;647287;216;31631;-73
2021/01/11 06:29:29;;;;;;;33.80;19.93;;;-6.20;1.40;;;-5.77;100.00;95765.45;641357;220;25846;-73
2021/01/11 06:31:57;;;;;;;36.50;22.55;;;-6.20;1.40;;;-5.86;100.00;95765.67;635290;221;31805;-74
2021/01/11 06:34:32;;;;;;;38.85;24.52;;;-6.30;1.40;;;-5.83;100.00;95761.69;642360;219;31924;-73
2021/01/11 06:37:01;;;;;;;32.80;18.03;;;-6.30;1.40;;;-5.87;100.00;95768.17;670788;211;27877;-73
2021/01/11 06:39:31;;;;;;;38.55;22.08;;;-6.30;1.40;;;-6.08;100.00;95768.97;657431;211;31607;-73
2021/01/11 06:41:59;;;;;;;37.67;24.17;;;-6.30;1.40;;;-5.97;100.00;95770.56;649473;215;31766;-72
2021/01/11 06:44:28;;;;;;;31.30;19.23;;;-6.30;1.40;;;-6.11;100.00;95773.16;641296;220;23482;-72
2021/01/11 06:46:56;;;;;;;36.20;23.05;;;-6.40;1.40;;;-6.40;100.00;95774.94;623031;225;31976;-71
2021/01/11 06:49:26;;;;;;;41.28;23.58;;;-6.50;1.40;;;-6.53;100.00;95776.75;650143;215;31787;-73
2021/01/11 06:54:43;;;;;;;34.35;21.42;;;-6.50;1.40;;;-6.41;100.00;95789.14;645502;212;31683;-73
2021/01/11 06:57:13;;;;;;;38.95;22.58;;;-6.50;1.40;;;-6.27;100.00;95788.37;638265;220;43120;-72
2021/01/11 06:59:40;;;;;;;41.15;22.52;;;-6.40;1.40;;;-6.56;100.00;95788.03;633501;220;31795;-72
2021/01/11 07:02:18;;;;;;;41.08;22.98;;;-6.60;1.40;;;-6.64;100.00;95787.47;649059;216;31765;-72
2021/01/11 07:04:47;;;;;;;29.80;17.07;;;-6.60;1.40;;;-6.67;100.00;95789.91;671540;211;23427;-72
2021/01/11 07:07:18;;;;;;;38.47;22.00;;;-6.70;1.40;;;-6.56;100.00;95787.17;663262;211;31529;-73
2021/01/11 07:09:52;;;;;;;37.57;24.27;;;-6.70;1.40;;;-6.47;100.00;95791.00;647246;215;31668;-72
2021/01/11 07:12:21;;;;;;;30.70;16.10;;;-6.60;1.40;;;-6.42;100.00;95789.26;654249;216;26963;-72
2021/01/11 07:14:54;;;;;;;47.60;24.30;;;-6.60;1.40;;;-6.35;100.00;95793.51;663463;211;31488;-72
2021/01/11 07:19:56;;;;;;;43.40;23.85;;;-6.50;1.40;;;-6.17;100.00;95802.31;647534;216;31615;-72
2021/01/11 07:22:25;;;;;;;34.73;17.43;;;-6.50;1.40;;;-6.05;100.00;95807.70;643259;221;23530;-72
2021/01/11 07:24:53;;;;;;;37.60;22.33;;;-6.50;1.40;;;-6.04;100.00;95809.63;635644;220;31832;-72
2021/01/11 07:27:22;;;;;;;34.10;18.50;;;-6.50;1.40;;;-6.39;100.00;95813.64;640289;220;23496;-73
2021/01/11 07:29:50;;;;;;;33.83;21.05;;;-6.70;1.40;;;-6.51;100.00;95811.03;635151;221;32402;-73
2021/01/11 07:32:18;;;;;;;36.50;23.70;;;-6.80;1.40;;;-6.36;100.00;95813.38;634436;221;31888;-73
2021/01/11 07:34:47;;;;;;;28.93;19.30;;;-6.70;1.40;;;-6.54;100.00;95813.44;640485;221;23495;-74
2021/01/11 07:37:15;;;;;;;34.95;21.08;;;-6.70;1.40;;;-6.66;100.00;95814.48;636179;221;32132;-73
2021/01/11 07:39:44;;;;;;;34.75;21.08;;;-6.80;1.40;;;-6.54;100.00;95812.69;628346;220;31972;-72
2021/01/11 07:42:12;;;;;;;29.63;18.53;;;-6.70;1.40;;;-6.50;100.00;95812.45;640734;220;23558;-72
2021/01/11 07:44:42;;;;;;;35.33;22.73;;;-6.70;1.40;;;-6.13;100.00;95808.89;648221;215;31589;-73
2021/01/11 07:47:11;;;;;;;40.80;22.85;;;-6.60;1.40;;;-6.52;100.00;95814.91;651243;215;31661;-73
2021/01/11 07:49:42;;;;;;;30.37;19.40;;;-6.70;1.40;;;-6.66;100.00;95825.38;640466;223;23557;-73
2021/01/11 07:52:11;;;;;;;39.75;21.85;;;-6.80;1.40;;;-6.50;100.00;95826.98;634818;222;32044;-73
2021/01/11 07:54:39;;;;;;;38.13;21.70;;;-6.70;1.40;;;-6.49;100.00;95825.12;648742;215;32171;-72
2021/01/11 07:57:13;;;;;;;29.77;20.10;;;-6.70;1.40;;;-6.63;100.00;95825.39;627331;224;23526;-72
2021/01/11 08:01:51;;;;;;;29.15;19.83;;;-6.90;1.40;;;-6.80;100.00;95825.45;646325;216;31636;-71
2021/01/11 08:04:19;;;;;;;35.40;21.30;;;-6.90;1.40;;;-6.81;100.00;95827.66;635058;220;31802;-71
2021/01/11 08:06:53;;;;;;;26.70;16.00;;;-6.90;1.40;;;-6.78;100.00;95827.97;640494;221;23540;-71
2021/01/11 08:09:24;;;;;;;31.85;19.62;;;-6.80;1.40;;;-6.54;100.00;95829.26;634000;220;32305;-71
2021/01/11 08:14:34;;;;;;;35.72;22.00;;;-6.80;1.40;;;-6.97;100.00;95829.38;620976;222;32215;-71
2021/01/11 08:17:02;;;;;;;30.10;19.13;;;-7.00;1.40;;;-6.74;100.00;95830.03;641898;220;23492;-71
2021/01/11 08:19:31;;;;;;;38.55;23.33;;;-6.90;1.40;;;-6.72;100.00;95834.59;634092;220;31853;-71
2021/01/11 08:22:00;;;;;;;36.93;16.50;;;-6.80;1.40;;;-6.60;100.00;95835.66;643672;220;23478;-70
2021/01/11 08:24:28;;;;;;;34.30;21.10;;;-6.80;1.40;;;-6.45;100.00;95827.05;633763;220;32727;-70
2021/01/11 08:27:06;;;;;;;34.80;20.42;;;-6.80;1.40;;;-6.58;100.00;95839.09;634780;221;31819;-70
2021/01/11 08:29:36;;;;;;;32.87;18.50;;;-6.80;1.40;;;-6.96;100.00;95842.28;641086;220;23487;-70
2021/01/11 08:32:06;;;;;;;32.20;19.95;;;-7.00;1.40;;;-6.93;100.00;95836.81;608497;229;32084;-70
2021/01/11 08:34:35;;;;;;;32.65;20.20;;;-7.00;1.40;;;-6.81;100.00;95836.83;635514;220;42539;-70
2021/01/11 08:37:19;;;;;;;31.77;17.00;;;-6.90;1.40;;;-6.90;100.00;95848.03;640716;221;23530;-70
2021/01/11 08:39:59;;;;;;;29.63;19.12;;;-7.00;1.40;;;-6.65;100.00;95851.82;614308;224;31944;-68
2021/01/11 08:42:28;;;;;;;27.00;16.20;;;-6.90;1.40;;;-6.88;100.00;95846.03;618519;230;23554;-69
2021/01/11 08:45:11;;;;;;;29.70;17.80;;;-7.00;1.40;;;-6.73;100.00;95844.23;602877;229;32332;-69
2021/01/11 08:47:56;;;;;;;26.42;18.23;;;-7.00;1.40;;;-6.60;100.00;95852.43;647065;216;31722;-70
2021/01/11 08:50:24;;;;;;;23.40;14.23;;;-6.90;1.40;;;-6.64;100.00;95857.78;640185;220;26719;-70
2021/01/11 08:52:53;;;;;;;24.02;15.88;;;-7.00;1.40;;;-7.18;100.00;95860.76;636932;220;32512;-71
2021/01/11 08:55:21;;;;;;;21.25;15.18;;;-7.30;1.40;;;-7.47;100.00;95867.58;633233;220;42857;-71
2021/01/11 08:57:55;;;;;;;18.17;12.00;;;-7.50;1.40;;;-7.66;100.00;95864.36;650092;218;28775;-70
2021/01/11 09:00:24;;;;;;;24.12;14.57;;;-7.60;1.40;;;-7.17;100.00;95872.78;662204;211;31576;-70
2021/01/11 09:02:52;;;;;;;21.95;15.70;;;-7.40;1.40;;;-7.70;100.00;95871.70;663923;211;42048;-71
2021/01/11 09:05:23;;;;;;;19.27;13.20;;;-7.70;1.40;;;-7.80;100.00;95868.45;641838;220;25663;-69
2021/01/11 09:07:52;;;;;;;24.58;16.45;;;-7.70;1.40;;;-7.78;100.00;95865.69;663155;211;31987;-69
2021/01/11 09:10:32;;;;;;;26.90;17.27;;;-7.70;1.40;;;-8.01;100.00;95874.20;663527;211;32270;-69
2021/01/11 09:13:17;;;;;;;28.83;18.25;;;-7.90;1.40;;;-7.36;100.00;95876.52;663578;211;31939;-69
2021/01/11 09:15:46;;;;;;;24.77;14.57;;;-7.40;1.40;;;-6.85;100.00;95874.52;668872;211;23428;-69
2021/01/11 09:20:48;;;;;;;29.95;19.80;;;-7.20;1.40;;;-6.24;100.00;95874.70;651053;212;31914;-71
2021/01/11 09:25:52;;;;;;;27.33;18.90;;;-6.60;1.40;;;-6.15;100.00;95891.41;642464;216;31897;-70
2021/01/11 09:28:20;;;;;;;24.50;17.17;;;-6.60;1.40;;;-5.86;98.96;95891.56;636686;220;31864;-71
2021/01/11 09:30:51;;;;;;;27.48;18.23;;;-6.50;1.40;;;-5.68;97.64;95895.37;636952;220;31827;-71
2021/01/11 09:33:17;;;;;;;24.27;17.10;;;-6.50;1.40;;;-5.99;96.46;95899.02;640598;220;23625;-71
2021/01/11 09:35:45;;;;;;;22.85;15.75;;;-6.70;1.40;;;-6.15;97.97;95907.55;637658;220;31774;-71
2021/01/11 09:38:15;;;;;;;25.60;14.80;;;-6.80;1.40;;;-6.24;98.77;95907.92;641681;221;23516;-71
2021/01/11 09:40:42;;;;;;;22.73;15.70;;;-6.90;1.40;;;-6.20;98.92;95902.89;634046;220;31937;-71
2021/01/11 09:43:12;;;;;;;26.27;17.65;;;-6.80;1.40;;;-5.69;98.13;95897.67;631675;221;42917;-72
2021/01/11 09:45:39;;;;;;;23.70;14.33;;;-6.50;1.40;;;-5.22;96.10;95900.39;632225;220;23564;-69
2021/01/11 09:48:07;;;;;;;23.87;15.98;;;-6.20;1.40;;;-4.89;94.43;95896.71;626583;224;32190;-70
2021/01/11 09:50:39;;;;;;;27.25;18.33;;;-6.10;1.40;;;-4.54;92.34;95891.18;635119;220;31735;-70
2021/01/11 09:53:12;;;;;;;22.83;14.33;;;-5.90;1.40;;;-4.65;90.46;95894.28;640791;220;23539;-71
2021/01/11 09:55:40;;;;;;;23.12;16.52;;;-6.10;1.40;;;-4.83;91.41;95899.41;635238;220;32405;-69
2021/01/11 09:58:09;;;;;;;21.52;16.65;;;-6.20;1.40;;;-4.74;91.62;95891.72;633408;222;31758;-72
2021/01/11 10:00:37;;;;;;;22.93;15.07;;;-6.10;1.40;;;-5.30;90.52;95892.23;638259;223;23481;-69
2021/01/11 10:03:05;;;;;;;25.67;17.20;;;-6.30;1.40;;;-4.11;92.32;95886.42;631614;223;31794;-69
2021/01/11 10:05:34;;;;;;;20.60;14.53;;;-5.80;1.40;;;-3.90;89.89;95889.06;639772;222;23484;-70
2021/01/11 10:08:02;;;;;;;22.60;16.55;;;-5.60;1.40;;;-4.07;88.58;95893.27;633446;222;31908;-70
2021/01/11 10:10:32;;;;;;;23.60;16.35;;;-5.70;1.40;;;-4.35;88.54;95889.00;623991;225;31957;-70
2021/01/11 10:13:00;;;;;;;23.93;15.70;;;-5.80;1.40;;;-4.37;87.49;95888.36;627739;224;23509;-70
2021/01/11 10:15:30;;;;;;;25.58;18.25;;;-5.90;1.40;;;-4.12;89.03;95880.89;636855;221;31776;-70
2021/01/11 10:17:58;;;;;;;24.83;17.37;;;-5.70;1.40;;;-4.34;89.13;95878.20;626710;225;31968;-72
2021/01/11 10:20:26;;;;;;;19.43;15.33;;;-6.00;1.40;;;-4.05;88.73;95874.15;635042;224;23503;-70
2021/01/11 10:22:55;;;;;;;23.12;18.08;;;-5.60;1.40;;;-3.90;87.35;95875.46;624579;224;32468;-69
2021/01/11 10:25:23;;;;;;;24.80;18.40;;;-5.60;1.40;;;-4.06;86.76;95872.50;635715;221;32074;-71
2021/01/11 10:27:54;;;;;;;26.12;18.40;;;-5.70;1.40;;;-3.57;88.36;95864.98;637343;220;31982;-70
2021/01/11 10:30:20;;;;;;;24.65;16.87;;;-5.60;1.40;;;-4.49;86.79;95870.23;624146;224;31986;-70
2021/01/11 10:32:49;;;;;;;25.45;17.58;;;-5.90;1.40;;;-4.66;89.41;95867.05;636148;221;31771;-70
2021/01/11 10:35:17;;;;;;;19.50;13.50;;;-6.00;1.40;;;-4.98;91.20;95861.35;640382;220;24517;-70
2021/01/11 10:37:45;;;;;;;24.25;16.33;;;-5.90;1.40;;;-5.41;91.81;95850.30;637568;220;31840;-71
2021/01/11 10:40:14;;;;;;;25.23;17.65;;;-6.30;1.40;;;-4.75;93.76;95852.13;625034;225;32016;-70
2021/01/11 10:42:43;;;;;;;22.80;14.50;;;-6.00;1.40;;;-4.72;91.70;95851.97;629127;224;23597;-70
2021/01/11 10:45:11;;;;;;;22.73;15.90;;;-5.80;1.40;;;-4.76;92.55;95855.65;637607;220;31887;-70
2021/01/11 10:47:39;;;;;;;23.12;17.25;;;-5.80;1.40;;;-4.59;90.67;95852.52;630168;225;31939;-70
2021/01/11 10:50:09;;;;;;;22.83;15.60;;;-5.80;1.40;;;-5.20;92.24;95842.25;640155;220;23480;-70
2021/01/11 10:52:40;;;;;;;23.48;16.33;;;-6.10;1.40;;;-5.20;93.71;95840.59;624872;224;31910;-70
2021/01/11 10:55:06;;;;;;;21.67;13.77;;;-6.10;1.40;;;-5.20;93.03;95835.59;643367;220;23475;-69